createdAt,value
2019-05-02T00:00:31.566Z,21.11
2019-05-02T00:01:31.547Z,21.12
2019-05-02T00:02:31.918Z,21.09
2019-05-02T00:03:35.957Z,21.07
2019-05-02T00:04:32.537Z,21.09
2019-05-02T00:05:32.324Z,21.11
2019-05-02T00:06:31.516Z,21.15
2019-05-02T00:07:31.591Z,21.07
2019-05-02T00:08:33.218Z,21.07
2019-05-02T00:09:33.506Z,21.09
2019-05-02T00:10:31.436Z,21.06
2019-05-02T00:11:31.439Z,21.05
2019-05-02T00:12:32.285Z,21.17
2019-05-02T00:13:31.715Z,21.05
2019-05-02T00:14:31.423Z,21.06
2019-05-02T00:15:37.761Z,21.06
2019-05-02T00:16:32.408Z,21.09
2019-05-02T00:17:31.247Z,21.02
2019-05-02T00:18:31.980Z,21.05
2019-05-02T00:19:32.628Z,21.09
2019-05-02T00:20:31.254Z,21.11
2019-05-02T00:21:32.895Z,21.07
2019-05-02T00:22:32.266Z,21.06
2019-05-02T00:23:32.572Z,21.06
2019-05-02T00:24:34.000Z,21.07
2019-05-02T00:25:32.338Z,21.07
2019-05-02T00:26:31.265Z,21.06
2019-05-02T00:27:32.858Z,21.06
2019-05-02T00:28:32.252Z,21.06
2019-05-02T00:29:31.211Z,21.00
2019-05-02T00:30:34.605Z,21.06
2019-05-02T00:31:31.265Z,21.06
2019-05-02T00:32:31.434Z,21.03
2019-05-02T00:33:34.331Z,21.11
2019-05-02T00:34:31.261Z,21.03
2019-05-02T00:35:31.219Z,21.09
2019-05-02T00:36:31.164Z,21.09
2019-05-02T00:37:33.159Z,21.05
2019-05-02T00:38:33.377Z,21.07
2019-05-02T00:39:33.873Z,21.09
2019-05-02T00:40:31.397Z,21.09
2019-05-02T00:41:33.025Z,21.09
2019-05-02T00:42:32.016Z,21.12
2019-05-02T00:43:34.300Z,21.11
2019-05-02T00:44:32.171Z,21.11
2019-05-02T00:45:32.039Z,21.05
2019-05-02T00:46:34.936Z,21.11
2019-05-02T00:47:31.755Z,21.05
2019-05-02T00:48:31.095Z,21.09
2019-05-02T00:49:35.203Z,21.12
2019-05-02T00:50:30.990Z,21.05
2019-05-02T00:51:31.114Z,21.07
2019-05-02T00:52:32.916Z,21.12
2019-05-02T00:53:31.972Z,21.07
2019-05-02T00:54:30.960Z,21.07
2019-05-02T00:55:33.876Z,21.11
2019-05-02T00:56:30.974Z,21.05
2019-05-02T00:57:31.639Z,21.02
2019-05-02T00:58:31.923Z,21.07
2019-05-02T00:59:30.908Z,21.05
2019-05-02T01:00:30.930Z,21.12
2019-05-02T01:01:31.742Z,21.06
2019-05-02T01:02:30.915Z,21.02
2019-05-02T01:03:32.211Z,21.09
2019-05-02T01:04:31.586Z,21.07
2019-05-02T01:05:33.716Z,21.02
2019-05-02T01:06:32.680Z,21.03
2019-05-02T01:07:30.825Z,21.05
2019-05-02T01:08:35.376Z,21.07
2019-05-02T01:09:31.023Z,21.14
2019-05-02T01:10:31.029Z,21.09
2019-05-02T01:11:32.113Z,21.09
2019-05-02T01:12:30.775Z,21.11
2019-05-02T01:13:30.747Z,21.09
2019-05-02T01:14:31.759Z,21.14
2019-05-02T01:15:31.320Z,21.07
2019-05-02T01:16:30.983Z,21.06
2019-05-02T01:17:32.297Z,21.02
2019-05-02T01:18:30.697Z,21.05
2019-05-02T01:19:30.722Z,21.07
2019-05-02T01:20:30.631Z,21.07
2019-05-02T01:21:34.130Z,20.96
2019-05-02T01:22:32.169Z,21.07
2019-05-02T01:23:30.701Z,20.99
2019-05-02T01:24:34.062Z,21.03
2019-05-02T01:25:32.568Z,20.97
2019-05-02T01:26:30.620Z,20.97
2019-05-02T01:27:31.245Z,21.07
2019-05-02T01:28:30.589Z,21.12
2019-05-02T01:29:31.759Z,21.06
2019-05-02T01:30:31.167Z,21.12
2019-05-02T01:31:30.581Z,21.14
2019-05-02T01:32:31.339Z,21.09
2019-05-02T01:33:31.275Z,21.07
2019-05-02T01:34:30.577Z,21.00
2019-05-02T01:35:31.605Z,21.00
2019-05-02T01:36:30.554Z,21.05
2019-05-02T01:37:30.511Z,20.96
2019-05-02T01:38:31.864Z,21.07
2019-05-02T01:39:31.102Z,21.09
2019-05-02T01:40:30.770Z,20.97
2019-05-02T01:41:31.171Z,21.02
2019-05-02T01:42:39.616Z,21.02
2019-05-02T01:43:31.492Z,21.03
2019-05-02T01:44:36.159Z,21.03
2019-05-02T01:45:31.655Z,21.11
2019-05-02T01:46:30.438Z,21.02
2019-05-02T01:47:34.196Z,21.02
2019-05-02T01:48:30.413Z,21.06
2019-05-02T01:49:30.369Z,21.03
2019-05-02T01:50:33.546Z,21.00
2019-05-02T01:51:30.521Z,21.03
2019-05-02T01:52:31.149Z,21.14
2019-05-02T01:53:34.150Z,21.00
2019-05-02T01:54:31.316Z,21.03
2019-05-02T01:55:30.324Z,21.07
2019-05-02T01:56:33.234Z,20.97
2019-05-02T01:57:30.441Z,20.97
2019-05-02T01:58:30.162Z,21.06
2019-05-02T01:59:33.854Z,20.99
2019-05-02T02:00:30.211Z,21.07
2019-05-02T02:01:30.212Z,21.02
2019-05-02T02:02:32.894Z,20.97
2019-05-02T02:03:31.448Z,21.03
2019-05-02T02:04:30.198Z,20.96
2019-05-02T02:05:32.269Z,21.09
2019-05-02T02:06:31.190Z,20.97
2019-05-02T02:07:30.809Z,20.97
2019-05-02T02:08:32.636Z,21.05
2019-05-02T02:09:31.744Z,21.09
2019-05-02T02:10:30.138Z,20.97
2019-05-02T02:11:33.950Z,20.97
2019-05-02T02:12:31.130Z,20.96
2019-05-02T02:13:31.326Z,20.97
2019-05-02T02:14:31.041Z,20.97
2019-05-02T02:15:30.748Z,20.99
2019-05-02T02:16:30.004Z,20.93
2019-05-02T02:17:29.947Z,20.96
2019-05-02T02:18:30.300Z,20.93
2019-05-02T02:19:30.292Z,20.97
2019-05-02T02:20:30.497Z,21.11
2019-05-02T02:21:31.212Z,20.97
2019-05-02T02:22:33.938Z,20.97
2019-05-02T02:23:31.698Z,20.99
2019-05-02T02:24:29.972Z,21.06
2019-05-02T02:25:32.178Z,20.93
2019-05-02T02:26:31.168Z,20.96
2019-05-02T02:27:30.518Z,21.03
2019-05-02T02:28:32.009Z,20.99
2019-05-02T02:29:30.239Z,20.97
2019-05-02T02:30:29.930Z,21.00
2019-05-02T02:31:30.934Z,21.00
2019-05-02T02:32:29.864Z,20.96
2019-05-02T02:33:31.020Z,20.96
2019-05-02T02:34:32.321Z,20.97
2019-05-02T02:35:29.841Z,20.97
2019-05-02T02:36:33.852Z,21.00
2019-05-02T02:37:30.841Z,20.97
2019-05-02T02:38:33.524Z,20.95
2019-05-02T02:39:30.933Z,20.96
2019-05-02T02:40:33.530Z,21.00
2019-05-02T02:41:29.801Z,20.95
2019-05-02T02:42:31.632Z,20.96
2019-05-02T02:43:33.950Z,20.95
2019-05-02T02:44:33.867Z,20.96
2019-05-02T02:45:31.190Z,20.96
2019-05-02T02:46:30.737Z,20.97
2019-05-02T02:47:30.790Z,21.02
2019-05-02T02:48:33.716Z,20.96
2019-05-02T02:49:30.761Z,20.96
2019-05-02T02:50:30.077Z,21.02
2019-05-02T02:51:31.434Z,20.95
2019-05-02T02:52:30.249Z,20.95
2019-05-02T02:53:29.633Z,21.00
2019-05-02T02:54:29.666Z,20.95
2019-05-02T02:55:30.131Z,20.96
2019-05-02T02:56:34.435Z,21.00
2019-05-02T02:57:31.258Z,21.05
2019-05-02T02:58:30.206Z,21.02
2019-05-02T02:59:29.548Z,20.99
2019-05-02T03:00:30.407Z,20.97
2019-05-02T03:01:31.312Z,20.99
2019-05-02T03:02:29.449Z,21.03
2019-05-02T03:03:34.592Z,20.95
2019-05-02T03:04:30.046Z,20.95
2019-05-02T03:05:29.578Z,21.02
2019-05-02T03:06:29.529Z,21.00
2019-05-02T03:07:29.522Z,20.99
2019-05-02T03:08:30.118Z,20.99
2019-05-02T03:09:30.360Z,20.97
2019-05-02T03:10:29.408Z,20.97
2019-05-02T03:11:29.416Z,20.96
2019-05-02T03:12:36.190Z,20.93
2019-05-02T03:13:30.844Z,20.99
2019-05-02T03:14:29.457Z,21.02
2019-05-02T03:15:30.571Z,20.96
2019-05-02T03:16:30.249Z,20.99
2019-05-02T03:17:29.298Z,20.97
2019-05-02T03:18:39.495Z,20.96
2019-05-02T03:19:31.123Z,21.02
2019-05-02T03:20:39.529Z,20.92
2019-05-02T03:21:31.167Z,20.96
2019-05-02T03:22:35.013Z,20.93
2019-05-02T03:23:31.279Z,20.97
2019-05-02T03:24:36.814Z,20.96
2019-05-02T03:25:49.237Z,21.02
2019-05-02T03:26:32.094Z,21.00
2019-05-02T03:27:36.211Z,20.96
2019-05-02T03:28:30.276Z,20.99
2019-05-02T03:29:44.050Z,20.99
2019-05-02T03:30:36.472Z,20.97
2019-05-02T03:31:31.690Z,20.96
2019-05-02T03:32:34.383Z,20.92
2019-05-02T03:33:51.897Z,20.97
2019-05-02T03:34:47.858Z,20.97
2019-05-02T03:35:42.945Z,20.96
2019-05-02T03:36:35.352Z,21.05
2019-05-02T03:37:30.068Z,20.97
2019-05-02T03:38:32.746Z,20.96
2019-05-02T03:39:29.857Z,20.96
2019-05-02T03:40:32.325Z,20.93
2019-05-02T03:41:30.137Z,20.97
2019-05-02T03:42:29.145Z,20.92
2019-05-02T03:43:29.108Z,20.97
2019-05-02T03:44:29.808Z,21.00
2019-05-02T03:45:32.346Z,20.99
2019-05-02T03:46:30.220Z,20.99
2019-05-02T03:47:29.693Z,20.97
2019-05-02T03:48:29.024Z,20.99
2019-05-02T03:49:29.603Z,20.92
2019-05-02T03:50:32.713Z,20.93
2019-05-02T03:51:31.135Z,20.97
2019-05-02T03:52:28.921Z,20.99
2019-05-02T03:53:29.091Z,20.97
2019-05-02T03:54:28.962Z,20.96
2019-05-02T03:55:31.411Z,20.93
2019-05-02T03:56:29.626Z,20.99
2019-05-02T03:57:33.198Z,20.92
2019-05-02T03:58:30.238Z,20.93
2019-05-02T03:59:37.727Z,20.95
2019-05-02T04:00:29.978Z,20.96
2019-05-02T04:01:34.737Z,21.00
2019-05-02T04:02:29.863Z,20.96
2019-05-02T04:03:34.313Z,20.90
2019-05-02T04:04:29.886Z,21.00
2019-05-02T04:05:33.902Z,20.95
2019-05-02T04:06:30.233Z,20.96
2019-05-02T04:07:39.420Z,21.06
2019-05-02T04:08:30.887Z,20.97
2019-05-02T04:09:32.083Z,20.97
2019-05-02T04:10:29.798Z,21.00
2019-05-02T04:11:38.004Z,20.96
2019-05-02T04:12:32.637Z,20.97
2019-05-02T04:13:30.072Z,20.96
2019-05-02T04:14:37.915Z,20.96
2019-05-02T04:15:35.158Z,20.95
2019-05-02T04:16:29.775Z,20.99
2019-05-02T04:17:35.754Z,21.02
2019-05-02T04:18:29.777Z,20.96
2019-05-02T04:19:34.683Z,20.88
2019-05-02T04:20:30.203Z,20.97
2019-05-02T04:21:29.118Z,20.95
2019-05-02T04:22:28.626Z,20.93
2019-05-02T04:23:29.910Z,20.90
2019-05-02T04:24:28.633Z,21.02
2019-05-02T04:25:34.021Z,20.95
2019-05-02T04:26:30.091Z,20.99
2019-05-02T04:27:34.112Z,20.88
2019-05-02T04:28:29.533Z,20.97
2019-05-02T04:29:31.196Z,20.92
2019-05-02T04:30:28.592Z,20.99
2019-05-02T04:31:31.808Z,20.95
2019-05-02T04:32:28.589Z,21.00
2019-05-02T04:33:34.628Z,20.90
2019-05-02T04:34:29.810Z,20.90
2019-05-02T04:35:34.275Z,20.95
2019-05-02T04:36:29.489Z,20.97
2019-05-02T04:37:34.201Z,21.03
2019-05-02T04:38:39.050Z,20.93
2019-05-02T04:39:29.474Z,20.96
2019-05-02T04:40:28.464Z,20.92
2019-05-02T04:41:31.718Z,21.05
2019-05-02T04:42:29.577Z,20.99
2019-05-02T04:43:29.019Z,21.00
2019-05-02T04:44:39.296Z,21.00
2019-05-02T04:45:50.979Z,20.90
2019-05-02T04:46:31.204Z,20.87
2019-05-02T04:47:29.318Z,20.99
2019-05-02T04:48:34.589Z,20.93
2019-05-02T04:49:35.733Z,20.90
2019-05-02T04:50:29.618Z,20.93
2019-05-02T04:51:31.778Z,21.00
2019-05-02T04:52:28.882Z,21.00
2019-05-02T04:53:36.747Z,20.97
2019-05-02T04:54:32.319Z,20.90
2019-05-02T04:55:33.197Z,21.00
2019-05-02T04:56:28.505Z,20.95
2019-05-02T04:57:36.952Z,20.96
2019-05-02T04:58:33.461Z,21.00
2019-05-02T04:59:32.914Z,20.87
2019-05-02T05:00:28.900Z,20.99
2019-05-02T05:01:33.034Z,20.95
2019-05-02T05:02:36.187Z,20.96
2019-05-02T05:03:30.293Z,20.90
2019-05-02T05:04:33.232Z,20.92
2019-05-02T05:05:31.311Z,20.99
2019-05-02T05:06:28.179Z,20.96
2019-05-02T05:07:32.577Z,21.00
2019-05-02T05:08:31.957Z,20.97
2019-05-02T05:09:28.690Z,20.87
2019-05-02T05:10:28.107Z,20.92
2019-05-02T05:11:28.101Z,20.87
2019-05-02T05:12:32.531Z,20.88
2019-05-02T05:13:29.697Z,20.99
2019-05-02T05:14:32.849Z,20.92
2019-05-02T05:15:40.246Z,20.95
2019-05-02T05:16:29.929Z,20.97
2019-05-02T05:17:32.745Z,20.99
2019-05-02T05:18:29.101Z,20.92
2019-05-02T05:19:32.476Z,21.00
2019-05-02T05:20:29.033Z,20.92
2019-05-02T05:21:28.582Z,20.87
2019-05-02T05:22:28.398Z,20.97
2019-05-02T05:23:28.684Z,20.96
2019-05-02T05:24:28.015Z,21.03
2019-05-02T05:25:28.800Z,20.95
2019-05-02T05:26:28.027Z,20.88
2019-05-02T05:27:27.976Z,20.90
2019-05-02T05:28:27.974Z,20.85
2019-05-02T05:29:29.194Z,20.88
2019-05-02T05:30:27.863Z,20.92
2019-05-02T05:31:29.293Z,21.00
2019-05-02T05:32:28.225Z,20.88
2019-05-02T05:33:28.503Z,20.92
2019-05-02T05:34:31.527Z,20.93
2019-05-02T05:35:28.813Z,20.93
2019-05-02T05:36:32.516Z,20.90
2019-05-02T05:37:29.615Z,20.97
2019-05-02T05:38:32.254Z,20.96
2019-05-02T05:39:29.482Z,20.96
2019-05-02T05:40:31.862Z,20.92
2019-05-02T05:41:30.312Z,20.90
2019-05-02T05:42:30.156Z,20.97
2019-05-02T05:43:29.824Z,20.92
2019-05-02T05:44:32.473Z,20.95
2019-05-02T05:45:27.918Z,20.97
2019-05-02T05:46:28.264Z,21.00
2019-05-02T05:47:27.691Z,20.87
2019-05-02T05:48:31.988Z,20.99
2019-05-02T05:49:31.159Z,20.93
2019-05-02T05:50:27.651Z,20.87
2019-05-02T05:51:27.878Z,20.90
2019-05-02T05:52:27.572Z,20.88
2019-05-02T05:53:30.960Z,20.93
2019-05-02T05:54:28.472Z,20.90
2019-05-02T05:55:31.554Z,21.00
2019-05-02T05:56:28.121Z,20.99
2019-05-02T05:57:27.945Z,20.93
2019-05-02T05:58:28.421Z,20.90
2019-05-02T05:59:32.004Z,21.00
2019-05-02T06:00:27.900Z,21.05
2019-05-02T06:01:34.441Z,20.93
2019-05-02T06:02:28.482Z,20.96
2019-05-02T06:03:27.861Z,20.99
2019-05-02T06:04:32.683Z,20.95
2019-05-02T06:05:28.314Z,20.97
2019-05-02T06:06:27.989Z,20.92
2019-05-02T06:07:28.425Z,20.96
2019-05-02T06:08:27.288Z,20.96
2019-05-02T06:09:31.486Z,21.02
2019-05-02T06:10:28.264Z,20.96
2019-05-02T06:11:27.291Z,20.99
2019-05-02T06:12:30.374Z,20.97
2019-05-02T06:13:29.125Z,21.00
2019-05-02T06:14:27.782Z,21.02
2019-05-02T06:15:27.401Z,20.95
2019-05-02T06:16:27.345Z,20.96
2019-05-02T06:17:28.519Z,20.93
2019-05-02T06:18:28.445Z,20.95
2019-05-02T06:19:27.190Z,20.97
2019-05-02T06:20:30.676Z,20.99
2019-05-02T06:21:27.493Z,20.99
2019-05-02T06:22:27.128Z,20.93
2019-05-02T06:23:31.065Z,20.96
2019-05-02T06:24:28.223Z,21.03
2019-05-02T06:25:34.407Z,21.02
2019-05-02T06:26:28.303Z,20.99
2019-05-02T06:27:30.404Z,20.99
2019-05-02T06:28:27.055Z,20.99
2019-05-02T06:29:27.043Z,20.96
2019-05-02T06:30:30.997Z,21.00
2019-05-02T06:31:27.032Z,21.02
2019-05-02T06:32:27.108Z,20.96
2019-05-02T06:33:30.566Z,20.99
2019-05-02T06:34:27.987Z,20.95
2019-05-02T06:35:26.980Z,20.99
2019-05-02T06:36:27.209Z,21.00
2019-05-02T06:37:27.006Z,20.99
2019-05-02T06:38:27.109Z,20.97
2019-05-02T06:39:31.532Z,20.95
2019-05-02T06:40:27.931Z,20.97
2019-05-02T06:41:26.973Z,20.95
2019-05-02T06:42:27.671Z,20.96
2019-05-02T06:43:27.980Z,21.02
2019-05-02T06:44:26.986Z,20.99
2019-05-02T06:45:26.866Z,20.99
2019-05-02T06:46:28.218Z,20.96
2019-05-02T06:47:26.852Z,21.00
2019-05-02T06:48:27.025Z,20.96
2019-05-02T06:49:26.819Z,20.90
2019-05-02T06:50:28.435Z,20.96
2019-05-02T06:51:26.940Z,21.02
2019-05-02T06:52:32.859Z,20.95
2019-05-02T06:54:36.249Z,21.05
2019-05-02T06:55:38.760Z,20.99
2019-05-02T06:56:38.500Z,21.00
2019-05-02T06:57:36.396Z,21.02
2019-05-02T06:58:37.096Z,20.99
2019-05-02T06:59:36.949Z,20.96
2019-05-02T07:00:55.224Z,20.99
2019-05-02T07:01:37.099Z,20.96
2019-05-02T07:02:36.089Z,20.96
2019-05-02T07:03:36.214Z,20.92
2019-05-02T07:04:36.104Z,21.05
2019-05-02T07:05:36.148Z,21.03
2019-05-02T07:06:55.968Z,21.03
2019-05-02T07:07:37.614Z,21.03
2019-05-02T07:08:36.161Z,20.96
2019-05-02T07:09:41.013Z,20.88
2019-05-02T07:10:44.567Z,20.90
2019-05-02T07:11:38.955Z,20.99
2019-05-02T07:12:36.051Z,20.93
2019-05-02T07:13:41.826Z,20.88
2019-05-02T07:14:37.048Z,20.95
2019-05-02T07:15:38.505Z,20.81
2019-05-02T07:16:38.845Z,20.96
2019-05-02T07:17:38.307Z,21.06
2019-05-02T07:18:36.890Z,20.93
2019-05-02T07:19:35.983Z,20.90
2019-05-02T07:20:40.558Z,20.87
2019-05-02T07:21:36.922Z,20.88
2019-05-02T07:22:38.766Z,20.95
2019-05-02T07:23:35.881Z,20.97
2019-05-02T07:24:35.898Z,20.93
2019-05-02T07:25:39.144Z,21.00
2019-05-02T07:26:36.024Z,20.88
2019-05-02T07:27:35.872Z,20.90
2019-05-02T07:28:40.279Z,20.90
2019-05-02T07:29:37.918Z,20.88
2019-05-02T07:30:36.294Z,21.02
2019-05-02T07:31:35.763Z,20.99
2019-05-02T07:32:35.758Z,20.92
2019-05-02T07:33:37.406Z,20.84
2019-05-02T07:34:35.737Z,20.96
2019-05-02T07:35:35.782Z,20.85
2019-05-02T07:36:38.220Z,20.90
2019-05-02T07:37:35.790Z,20.95
2019-05-02T07:38:36.038Z,20.95
2019-05-02T07:39:36.149Z,20.99
2019-05-02T07:40:35.687Z,20.87
2019-05-02T07:41:37.287Z,20.97
2019-05-02T07:42:36.816Z,20.90
2019-05-02T07:43:36.751Z,20.92
2019-05-02T07:44:35.623Z,20.85
2019-05-02T07:45:35.628Z,20.92
2019-05-02T07:46:35.880Z,20.93
2019-05-02T07:47:40.178Z,20.85
2019-05-02T07:48:36.712Z,20.93
2019-05-02T07:49:35.749Z,20.96
2019-05-02T07:50:35.723Z,20.81
2019-05-02T07:51:35.545Z,20.95
2019-05-02T07:52:35.531Z,21.00
2019-05-02T07:53:35.639Z,20.92
2019-05-02T07:54:35.754Z,20.92
2019-05-02T07:55:40.684Z,20.99
2019-05-02T07:56:36.555Z,20.90
2019-05-02T07:57:35.481Z,20.87
2019-05-02T07:58:38.450Z,20.92
2019-05-02T07:59:36.465Z,20.93
2019-05-02T08:00:37.154Z,20.92
2019-05-02T08:01:35.425Z,20.81
2019-05-02T08:02:35.419Z,20.97
2019-05-02T08:03:35.467Z,20.96
2019-05-02T08:04:35.463Z,20.95
2019-05-02T08:05:36.891Z,20.96
2019-05-02T08:06:39.824Z,20.90
2019-05-02T08:07:35.509Z,20.96
2019-05-02T08:08:36.420Z,20.99
2019-05-02T08:09:39.288Z,21.03
2019-05-02T08:10:36.327Z,20.96
2019-05-02T08:11:37.061Z,20.96
2019-05-02T08:12:35.445Z,20.96
2019-05-02T08:13:35.295Z,20.96
2019-05-02T08:14:36.426Z,21.03
2019-05-02T08:15:35.349Z,20.93
2019-05-02T08:16:35.267Z,20.97
2019-05-02T08:17:35.277Z,20.99
2019-05-02T08:18:35.243Z,21.00
2019-05-02T08:19:37.489Z,20.88
2019-05-02T08:20:36.211Z,20.99
2019-05-02T08:21:35.204Z,21.02
2019-05-02T08:22:35.194Z,20.90
2019-05-02T08:23:35.225Z,20.99
2019-05-02T08:24:37.883Z,20.93
2019-05-02T08:25:35.346Z,20.95
2019-05-02T08:26:35.145Z,20.97
2019-05-02T08:27:36.732Z,20.99
2019-05-02T08:28:35.160Z,21.00
2019-05-02T08:29:35.142Z,20.95
2019-05-02T08:30:39.985Z,21.00
2019-05-02T08:31:36.311Z,21.00
2019-05-02T08:32:35.080Z,20.96
2019-05-02T08:33:35.901Z,21.03
2019-05-02T08:34:35.276Z,21.00
2019-05-02T08:35:35.439Z,20.99
2019-05-02T08:36:35.121Z,20.99
2019-05-02T08:37:41.114Z,20.95
2019-05-02T08:38:36.331Z,21.06
2019-05-02T08:39:35.323Z,21.02
2019-05-02T08:40:35.593Z,20.96
2019-05-02T08:41:35.194Z,21.03
2019-05-02T08:42:35.203Z,21.07
2019-05-02T08:43:40.310Z,21.06
2019-05-02T08:44:49.607Z,20.99
2019-05-02T08:45:38.319Z,20.99
2019-05-02T08:46:35.138Z,20.96
2019-05-02T08:47:37.266Z,21.05
2019-05-02T08:48:36.441Z,21.06
2019-05-02T08:49:36.083Z,21.06
2019-05-02T08:50:34.945Z,21.05
2019-05-02T08:51:34.988Z,21.06
2019-05-02T08:52:36.747Z,21.11
2019-05-02T08:53:36.320Z,21.05
2019-05-02T08:54:34.846Z,21.05
2019-05-02T08:55:34.924Z,21.09
2019-05-02T08:56:35.133Z,21.11
2019-05-02T08:57:36.318Z,21.05
2019-05-02T08:58:34.790Z,21.07
2019-05-02T08:59:35.754Z,21.11
2019-05-02T09:00:37.434Z,21.07
2019-05-02T09:01:35.684Z,21.02
2019-05-02T09:02:41.229Z,21.09
2019-05-02T09:03:54.873Z,21.09
2019-05-02T09:04:35.759Z,21.12
2019-05-02T09:05:36.927Z,21.02
2019-05-02T09:06:35.713Z,21.06
2019-05-02T09:07:37.082Z,21.05
2019-05-02T09:08:34.761Z,21.11
2019-05-02T09:09:34.679Z,21.06
2019-05-02T09:10:37.066Z,21.06
2019-05-02T09:11:35.767Z,21.18
2019-05-02T09:12:36.839Z,21.07
2019-05-02T09:13:35.758Z,21.20
2019-05-02T09:14:34.646Z,21.15
2019-05-02T09:15:35.329Z,21.05
2019-05-02T09:16:34.876Z,21.18
2019-05-02T09:17:38.485Z,21.15
2019-05-02T09:18:40.592Z,21.07
2019-05-02T09:19:35.679Z,21.20
2019-05-02T09:20:34.590Z,21.14
2019-05-02T09:21:36.062Z,21.11
2019-05-02T09:22:34.695Z,21.21
2019-05-02T09:23:37.018Z,21.15
2019-05-02T09:24:34.507Z,21.18
2019-05-02T09:25:34.488Z,21.18
2019-05-02T09:26:38.463Z,21.20
2019-05-02T09:27:34.505Z,21.12
2019-05-02T09:28:34.940Z,21.09
2019-05-02T09:29:37.381Z,21.14
2019-05-02T09:30:35.427Z,21.20
2019-05-02T09:31:36.823Z,21.22
2019-05-02T09:32:37.182Z,21.20
2019-05-02T09:33:36.839Z,21.22
2019-05-02T09:34:35.479Z,21.17
2019-05-02T09:35:34.525Z,21.21
2019-05-02T09:36:34.452Z,21.22
2019-05-02T09:37:34.358Z,21.09
2019-05-02T09:38:34.354Z,21.20
2019-05-02T09:39:36.530Z,21.15
2019-05-02T09:40:34.732Z,21.24
2019-05-02T09:41:36.205Z,21.12
2019-05-02T09:42:34.497Z,21.20
2019-05-02T09:43:39.025Z,21.20
2019-05-02T09:44:34.274Z,21.20
2019-05-02T09:45:37.375Z,21.20
2019-05-02T09:46:34.463Z,21.14
2019-05-02T09:47:46.971Z,21.14
2019-05-02T09:48:35.439Z,21.15
2019-05-02T09:49:34.973Z,21.18
2019-05-02T09:50:35.467Z,21.21
2019-05-02T09:51:35.216Z,21.24
2019-05-02T09:52:39.805Z,21.17
2019-05-02T09:53:35.203Z,21.22
2019-05-02T09:54:37.031Z,21.20
2019-05-02T09:55:35.211Z,21.29
2019-05-02T09:56:34.229Z,21.21
2019-05-02T09:57:34.397Z,21.24
2019-05-02T09:58:34.241Z,21.25
2019-05-02T09:59:34.160Z,21.29
2019-05-02T10:00:36.185Z,21.27
2019-05-02T10:01:34.405Z,21.25
2019-05-02T10:02:34.246Z,21.29
2019-05-02T10:03:34.095Z,21.37
2019-05-02T10:04:34.049Z,21.32
2019-05-02T10:05:34.233Z,21.32
2019-05-02T10:06:34.226Z,21.27
2019-05-02T10:07:34.032Z,21.32
2019-05-02T10:08:38.214Z,21.40
2019-05-02T10:09:35.037Z,21.35
2019-05-02T10:10:37.111Z,21.30
2019-05-02T10:11:34.978Z,21.36
2019-05-02T10:12:33.999Z,21.33
2019-05-02T10:13:33.953Z,21.35
2019-05-02T10:14:33.981Z,21.35
2019-05-02T10:15:33.945Z,21.35
2019-05-02T10:16:34.007Z,21.33
2019-05-02T10:17:37.429Z,21.42
2019-05-02T10:18:34.895Z,21.33
2019-05-02T10:19:34.353Z,21.42
2019-05-02T10:20:36.222Z,21.37
2019-05-02T10:21:34.176Z,21.40
2019-05-02T10:22:39.215Z,21.40
2019-05-02T10:23:34.981Z,21.39
2019-05-02T10:24:34.820Z,21.43
2019-05-02T10:25:38.634Z,21.42
2019-05-02T10:26:34.864Z,21.45
2019-05-02T10:27:33.846Z,21.45
2019-05-02T10:28:34.151Z,21.37
2019-05-02T10:29:34.540Z,21.43
2019-05-02T10:30:36.077Z,21.30
2019-05-02T10:31:37.690Z,21.43
2019-05-02T10:32:34.587Z,21.46
2019-05-02T10:33:37.627Z,21.36
2019-05-02T10:34:33.714Z,21.43
2019-05-02T10:35:37.483Z,21.36
2019-05-02T10:36:34.742Z,21.40
2019-05-02T10:37:38.185Z,21.43
2019-05-02T10:38:37.779Z,21.39
2019-05-02T10:39:37.688Z,21.36
2019-05-02T10:40:34.825Z,21.42
2019-05-02T10:41:39.663Z,21.46
2019-05-02T10:42:35.745Z,21.46
2019-05-02T10:43:34.418Z,21.42
2019-05-02T10:44:36.513Z,21.42
2019-05-02T10:45:34.687Z,21.39
2019-05-02T10:46:37.760Z,21.42
2019-05-02T10:47:36.155Z,21.36
2019-05-02T10:48:33.829Z,21.43
2019-05-02T10:49:33.783Z,21.45
2019-05-02T10:50:34.061Z,21.48
2019-05-02T10:51:33.934Z,21.45
2019-05-02T10:52:35.717Z,21.46
2019-05-02T10:53:33.693Z,21.46
2019-05-02T10:54:37.460Z,21.45
2019-05-02T10:55:33.836Z,21.46
2019-05-02T10:56:34.186Z,21.43
2019-05-02T10:57:33.620Z,21.43
2019-05-02T10:58:35.705Z,21.45
2019-05-02T10:59:33.631Z,21.50
2019-05-02T11:00:33.916Z,21.46
2019-05-02T11:01:33.513Z,21.48
2019-05-02T11:02:34.628Z,21.52
2019-05-02T11:03:37.903Z,21.51
2019-05-02T11:04:35.226Z,21.48
2019-05-02T11:05:33.610Z,21.50
2019-05-02T11:06:37.116Z,21.45
2019-05-02T11:07:34.559Z,21.45
2019-05-02T11:08:36.804Z,21.50
2019-05-02T11:09:34.445Z,21.50
2019-05-02T11:10:33.374Z,21.48
2019-05-02T11:11:33.296Z,21.51
2019-05-02T11:12:42.059Z,21.51
2019-05-02T11:13:35.036Z,21.50
2019-05-02T11:14:33.280Z,21.42
2019-05-02T11:15:33.896Z,21.51
2019-05-02T11:16:33.333Z,21.48
2019-05-02T11:17:36.178Z,21.43
2019-05-02T11:18:42.346Z,21.48
2019-05-02T11:19:34.476Z,21.51
2019-05-02T11:20:33.316Z,21.46
2019-05-02T11:21:33.457Z,21.52
2019-05-02T11:22:33.745Z,21.45
2019-05-02T11:23:33.332Z,21.43
2019-05-02T11:24:33.512Z,21.46
2019-05-02T11:25:33.184Z,21.46
2019-05-02T11:26:33.149Z,21.46
2019-05-02T11:27:33.395Z,21.43
2019-05-02T11:28:33.471Z,21.50
2019-05-02T11:29:33.234Z,21.45
2019-05-02T11:30:33.686Z,21.48
2019-05-02T11:31:34.440Z,21.40
2019-05-02T11:32:33.239Z,21.43
2019-05-02T11:33:33.320Z,21.48
2019-05-02T11:34:33.546Z,21.54
2019-05-02T11:35:34.039Z,21.46
2019-05-02T11:36:33.376Z,21.45
2019-05-02T11:37:33.358Z,21.51
2019-05-02T11:38:33.302Z,21.46
2019-05-02T11:39:43.299Z,21.50
2019-05-02T11:40:35.354Z,21.50
2019-05-02T11:41:33.998Z,21.50
2019-05-02T11:42:33.553Z,21.57
2019-05-02T11:43:37.208Z,21.54
2019-05-02T11:44:34.234Z,21.55
2019-05-02T11:45:33.188Z,21.45
2019-05-02T11:46:33.188Z,21.46
2019-05-02T11:47:33.694Z,21.48
2019-05-02T11:48:33.283Z,21.48
2019-05-02T11:50:48.472Z,21.58
2019-05-02T11:51:52.599Z,21.55
2019-05-02T11:52:49.279Z,21.61
2019-05-02T11:53:49.250Z,21.50
2019-05-02T11:54:48.765Z,21.52
2019-05-02T11:55:48.275Z,21.60
2019-05-02T11:56:50.476Z,21.58
2019-05-02T11:57:48.302Z,21.51
2019-05-02T11:58:50.225Z,21.60
2019-05-02T11:59:49.274Z,21.57
2019-05-02T12:00:49.711Z,21.61
2019-05-02T12:01:57.673Z,21.60
2019-05-02T12:02:56.292Z,21.64
2019-05-02T12:03:49.242Z,21.58
2019-05-02T12:04:53.899Z,21.54
2019-05-02T12:05:49.722Z,21.62
2019-05-02T12:06:49.899Z,21.54
2019-05-02T12:07:49.113Z,21.66
2019-05-02T12:08:49.472Z,21.60
2019-05-02T12:09:55.171Z,21.58
2019-05-02T12:10:49.161Z,21.61
2019-05-02T12:11:54.998Z,21.62
2019-05-02T12:12:49.288Z,21.57
2019-05-02T12:13:52.670Z,21.55
2019-05-02T12:14:50.119Z,21.55
2019-05-02T12:15:48.056Z,21.57
2019-05-02T12:16:48.960Z,21.50
2019-05-02T12:17:48.067Z,21.60
2019-05-02T12:18:48.698Z,21.55
2019-05-02T12:19:49.215Z,21.55
2019-05-02T12:20:48.130Z,21.61
2019-05-02T12:21:48.367Z,21.54
2019-05-02T12:22:48.007Z,21.64
2019-05-02T12:23:49.574Z,21.57
2019-05-02T12:24:48.300Z,21.64
2019-05-02T12:25:48.624Z,21.70
2019-05-02T12:26:49.481Z,21.54
2019-05-02T12:27:48.247Z,21.61
2019-05-02T12:28:47.851Z,21.72
2019-05-02T12:29:50.187Z,21.69
2019-05-02T12:30:48.697Z,21.67
2019-05-02T12:31:54.702Z,21.64
2019-05-02T12:32:49.908Z,21.67
2019-05-02T12:33:47.880Z,21.57
2019-05-02T12:34:47.860Z,21.60
2019-05-02T12:35:47.866Z,21.62
2019-05-02T12:36:47.816Z,21.67
2019-05-02T12:37:53.697Z,21.66
2019-05-02T12:38:49.684Z,21.62
2019-05-02T12:39:47.722Z,21.58
2019-05-02T12:40:47.589Z,21.70
2019-05-02T12:41:48.113Z,21.67
2019-05-02T12:42:48.330Z,21.66
2019-05-02T12:43:48.043Z,21.70
2019-05-02T12:44:47.882Z,21.52
2019-05-02T12:45:47.774Z,21.64
2019-05-02T12:46:48.507Z,21.62
2019-05-02T12:47:47.729Z,21.64
2019-05-02T12:48:47.644Z,21.54
2019-05-02T12:49:47.680Z,21.64
2019-05-02T12:50:47.597Z,21.67
2019-05-02T12:51:48.435Z,21.69
2019-05-02T12:52:48.506Z,21.62
2019-05-02T12:53:47.718Z,21.66
2019-05-02T12:54:48.231Z,21.66